PWSweather.com
Personal Weather Stations
Station Observations
VPOKROGLO
Kal Nad Kanalom, PrimorskaSI

Kal Nad KanalomPrimorskaSI

Lat: 46.072, Lon: 13.734

Elevation: 2526

Station Type: WS-2355

http://www.okroglovreme.com

High Low Average
Temperature 49.3°F9.6°F 33.4°F0.8°F 38.2°F3.4°F
Dew Point 36.4°F2.4°F 27.8°F-2.3°F 30.6°F-0.8°F
Winds 7.9 mph NE12.7 mph NE Calm Calm 2.7 mph 4.3 mph
Wind Gusts 10.7 mph17.2 mph -- 4.7 mph7.6 mph
Humidity 82% 60% 74%
Pressure 29.95 in1014.20 in 29.81 in1009.50 in -
Precipitation 0.00 in0.00 in - -
Hour Temp Dew Point Humidity Winds Wind Gusts Pressure Precip Precip Rate Daily Precip Total
12:00 AM 36.3°F2.4°C 28.5°F-1.9°C 73% 3.0 mph SSE4.8 kmh SSE 5.1 mph8.2 kmh 29.95 in1014.2 mb 0.00 in0.0 mm 0.00 in/hr0.0 mm/hr 0.00 in0.0 mm
12:15 AM 36.1°F2.3°C 28.3°F-2.1°C 73% 1.1 mph S1.8 kmh S 3.6 mph5.8 kmh 29.95 in1014.2 mb 0.00 in0.0 mm 0.00 in/hr0.0 mm/hr 0.00 in0.0 mm
12:30 AM 36.0°F2.2°C 28.5°F-1.9°C 74% 2.5 mph SSW4.0 kmh SSW 4.7 mph7.6 kmh 29.95 in1014.2 mb 0.00 in0.0 mm 0.00 in/hr0.0 mm/hr 0.00 in0.0 mm
12:45 AM 35.8°F2.1°C 28.3°F-2.1°C 74% 3.1 mph SSW5.0 kmh SSW 6.9 mph11.1 kmh 29.95 in1014.2 mb 0.00 in0.0 mm 0.00 in/hr0.0 mm/hr 0.00 in0.0 mm
01:00 AM 35.8°F2.1°C 28.3°F-2.1°C 74% 3.9 mph WSW6.3 kmh WSW 5.1 mph8.2 kmh 29.94 in1013.9 mb 0.00 in0.0 mm 0.00 in/hr0.0 mm/hr 0.00 in0.0 mm
01:15 AM 35.8°F2.1°C 28.3°F-2.1°C 74% 1.0 mph S1.6 kmh S 3.8 mph6.1 kmh 29.95 in1014.2 mb 0.00 in0.0 mm 0.00 in/hr0.0 mm/hr 0.00 in0.0 mm
01:30 AM 35.8°F2.1°C 28.3°F-2.1°C 74% 2.7 mph NE4.3 kmh NE 3.8 mph6.1 kmh 29.94 in1013.9 mb 0.00 in0.0 mm 0.00 in/hr0.0 mm/hr 0.00 in0.0 mm
01:45 AM 35.8°F2.1°C 28.3°F-2.1°C 74% 4.8 mph ESE7.7 kmh ESE 6.5 mph10.5 kmh 29.94 in1013.9 mb 0.00 in0.0 mm 0.00 in/hr0.0 mm/hr 0.00 in0.0 mm
02:00 AM 35.4°F1.9°C 28.3°F-2.1°C 75% 5.8 mph SE9.3 kmh SE 9.4 mph15.1 kmh 29.93 in1013.5 mb 0.00 in0.0 mm 0.00 in/hr0.0 mm/hr 0.00 in0.0 mm
02:15 AM 35.2°F1.8°C 28.1°F-2.2°C 75% 2.5 mph SSW4.0 kmh SSW 4.9 mph7.9 kmh 29.92 in1013.2 mb 0.00 in0.0 mm 0.00 in/hr0.0 mm/hr 0.00 in0.0 mm
02:30 AM 34.7°F1.5°C 27.9°F-2.3°C 76% 2.7 mph S4.3 kmh S 5.6 mph9.0 kmh 29.91 in1012.9 mb 0.00 in0.0 mm 0.00 in/hr0.0 mm/hr 0.00 in0.0 mm
02:45 AM 34.5°F1.4°C 28.1°F-2.2°C 77% 1.5 mph SSW2.4 kmh SSW 3.6 mph5.8 kmh 29.91 in1012.9 mb 0.00 in0.0 mm 0.00 in/hr0.0 mm/hr 0.00 in0.0 mm
03:00 AM 34.3°F1.3°C 27.9°F-2.3°C 77% 3.9 mph SSE6.3 kmh SSE 5.4 mph8.7 kmh 29.91 in1012.9 mb 0.00 in0.0 mm 0.00 in/hr0.0 mm/hr 0.00 in0.0 mm
03:15 AM 34.3°F1.3°C 27.9°F-2.3°C 77% 4.2 mph S6.8 kmh S 4.7 mph7.6 kmh 29.90 in1012.5 mb 0.00 in0.0 mm 0.00 in/hr0.0 mm/hr 0.00 in0.0 mm
03:30 AM 34.0°F1.1°C 27.8°F-2.3°C 78% 3.4 mph S5.5 kmh S 3.4 mph5.5 kmh 29.90 in1012.5 mb 0.00 in0.0 mm 0.00 in/hr0.0 mm/hr 0.00 in0.0 mm
03:45 AM 33.8°F1.0°C 28.0°F-2.2°C 79% 3.0 mph ENE4.8 kmh ENE 6.0 mph9.7 kmh 29.89 in1012.2 mb 0.00 in0.0 mm 0.00 in/hr0.0 mm/hr 0.00 in0.0 mm
04:00 AM 33.6°F0.9°C 28.1°F-2.2°C 80% 1.9 mph S3.1 kmh S 3.4 mph5.5 kmh 29.89 in1012.2 mb 0.00 in0.0 mm 0.00 in/hr0.0 mm/hr 0.00 in0.0 mm
04:15 AM 33.6°F0.9°C 28.1°F-2.2°C 80% 2.4 mph SSW3.9 kmh SSW 4.5 mph7.2 kmh 29.88 in1011.9 mb 0.00 in0.0 mm 0.00 in/hr0.0 mm/hr 0.00 in0.0 mm
04:30 AM 33.6°F0.9°C 28.1°F-2.2°C 80% 3.5 mph S5.6 kmh S 3.8 mph6.1 kmh 29.87 in1011.5 mb 0.00 in0.0 mm 0.00 in/hr0.0 mm/hr 0.00 in0.0 mm
04:45 AM 33.4°F0.8°C 28.2°F-2.1°C 81% 3.6 mph S5.8 kmh S 5.1 mph8.2 kmh 29.87 in1011.5 mb 0.00 in0.0 mm 0.00 in/hr0.0 mm/hr 0.00 in0.0 mm
05:00 AM 33.4°F0.8°C 28.2°F-2.1°C 81% 2.3 mph W3.7 kmh W 2.5 mph4.0 kmh 29.86 in1011.2 mb 0.00 in0.0 mm 0.00 in/hr0.0 mm/hr 0.00 in0.0 mm
05:15 AM 33.4°F0.8°C 28.2°F-2.1°C 81% 2.8 mph SSW4.5 kmh SSW 5.1 mph8.2 kmh 29.86 in1011.2 mb 0.00 in0.0 mm 0.00 in/hr0.0 mm/hr 0.00 in0.0 mm
05:30 AM 33.4°F0.8°C 28.2°F-2.1°C 81% 3.1 mph SSW5.0 kmh SSW 5.1 mph8.2 kmh 29.86 in1011.2 mb 0.00 in0.0 mm 0.00 in/hr0.0 mm/hr 0.00 in0.0 mm
05:45 AM 33.4°F0.8°C 28.2°F-2.1°C 81% 1.8 mph SW2.9 kmh SW 3.8 mph6.1 kmh 29.85 in1010.8 mb 0.00 in0.0 mm 0.00 in/hr0.0 mm/hr 0.00 in0.0 mm
06:00 AM 33.4°F0.8°C 28.2°F-2.1°C 81% 2.3 mph E3.7 kmh E 7.4 mph11.9 kmh 29.86 in1011.2 mb 0.00 in0.0 mm 0.00 in/hr0.0 mm/hr 0.00 in0.0 mm
06:15 AM 33.6°F0.9°C 28.4°F-2.0°C 81% 3.1 mph S5.0 kmh S 5.6 mph9.0 kmh 29.85 in1010.8 mb 0.00 in0.0 mm 0.00 in/hr0.0 mm/hr 0.00 in0.0 mm
06:30 AM 33.6°F0.9°C 28.1°F-2.2°C 80% 3.4 mph SE5.5 kmh SE 6.0 mph9.7 kmh 29.85 in1010.8 mb 0.00 in0.0 mm 0.00 in/hr0.0 mm/hr 0.00 in0.0 mm
06:45 AM 33.6°F0.9°C 28.1°F-2.2°C 80% 2.7 mph NNE4.3 kmh NNE 3.4 mph5.5 kmh 29.85 in1010.8 mb 0.00 in0.0 mm 0.00 in/hr0.0 mm/hr 0.00 in0.0 mm
07:00 AM 33.6°F0.9°C 28.1°F-2.2°C 80% 2.9 mph NNE4.7 kmh NNE 4.3 mph6.9 kmh 29.86 in1011.2 mb 0.00 in0.0 mm 0.00 in/hr0.0 mm/hr 0.00 in0.0 mm
07:15 AM 33.6°F0.9°C 28.1°F-2.2°C 80% 3.0 mph SE4.8 kmh SE 7.6 mph12.2 kmh 29.86 in1011.2 mb 0.00 in0.0 mm 0.00 in/hr0.0 mm/hr 0.00 in0.0 mm
07:30 AM 33.6°F0.9°C 28.1°F-2.2°C 80% 3.0 mph SE4.8 kmh SE 5.1 mph8.2 kmh 29.86 in1011.2 mb 0.00 in0.0 mm 0.00 in/hr0.0 mm/hr 0.00 in0.0 mm
07:45 AM 33.6°F0.9°C 28.1°F-2.2°C 80% 3.7 mph NW6.0 kmh NW 6.9 mph11.1 kmh 29.86 in1011.2 mb 0.00 in0.0 mm 0.00 in/hr0.0 mm/hr 0.00 in0.0 mm
08:00 AM 33.6°F0.9°C 28.1°F-2.2°C 80% 1.9 mph NNE3.1 kmh NNE 2.5 mph4.0 kmh 29.86 in1011.2 mb 0.00 in0.0 mm 0.00 in/hr0.0 mm/hr 0.00 in0.0 mm
08:15 AM 33.4°F0.8°C 28.2°F-2.1°C 81% 3.7 mph NNW6.0 kmh NNW 5.8 mph9.3 kmh 29.86 in1011.2 mb 0.00 in0.0 mm 0.00 in/hr0.0 mm/hr 0.00 in0.0 mm
08:30 AM 33.6°F0.9°C 28.4°F-2.0°C 81% 3.3 mph S5.3 kmh S 5.6 mph9.0 kmh 29.85 in1010.8 mb 0.00 in0.0 mm 0.00 in/hr0.0 mm/hr 0.00 in0.0 mm
08:45 AM 33.6°F0.9°C 28.4°F-2.0°C 81% 2.7 mph WSW4.3 kmh WSW 4.7 mph7.6 kmh 29.85 in1010.8 mb 0.00 in0.0 mm 0.00 in/hr0.0 mm/hr 0.00 in0.0 mm
09:00 AM 34.2°F1.2°C 28.9°F-1.7°C 81% 3.9 mph SE6.3 kmh SE 6.9 mph11.1 kmh 29.85 in1010.8 mb 0.00 in0.0 mm 0.00 in/hr0.0 mm/hr 0.00 in0.0 mm
09:15 AM 34.9°F1.6°C 29.3°F-1.5°C 80% 5.3 mph SW8.5 kmh SW 8.1 mph13.0 kmh 29.85 in1010.8 mb 0.00 in0.0 mm 0.00 in/hr0.0 mm/hr 0.00 in0.0 mm
09:30 AM 35.4°F1.9°C 29.6°F-1.3°C 79% 1.5 mph SSW2.4 kmh SSW 8.1 mph13.0 kmh 29.85 in1010.8 mb 0.00 in0.0 mm 0.00 in/hr0.0 mm/hr 0.00 in0.0 mm
09:45 AM 35.4°F1.9°C 29.2°F-1.6°C 78% 1.7 mph WSW2.7 kmh WSW 2.2 mph3.5 kmh 29.85 in1010.8 mb 0.00 in0.0 mm 0.00 in/hr0.0 mm/hr 0.00 in0.0 mm
10:00 AM 36.3°F2.4°C 30.1°F-1.1°C 78% 2.6 mph NNW4.2 kmh NNW 5.1 mph8.2 kmh 29.85 in1010.8 mb 0.00 in0.0 mm 0.00 in/hr0.0 mm/hr 0.00 in0.0 mm
10:15 AM 36.5°F2.5°C 30.3°F-0.9°C 78% 6.0 mph SSW9.7 kmh SSW 6.0 mph9.7 kmh 29.85 in1010.8 mb 0.00 in0.0 mm 0.00 in/hr0.0 mm/hr 0.00 in0.0 mm
10:30 AM 36.7°F2.6°C 30.5°F-0.8°C 78% 2.8 mph WNW4.5 kmh WNW 2.9 mph4.7 kmh 29.85 in1010.8 mb 0.00 in0.0 mm 0.00 in/hr0.0 mm/hr 0.00 in0.0 mm
10:45 AM 37.6°F3.1°C 31.0°F-0.6°C 77% 1.0 mph WNW1.6 kmh WNW 2.2 mph3.5 kmh 29.85 in1010.8 mb 0.00 in0.0 mm 0.00 in/hr0.0 mm/hr 0.00 in0.0 mm
11:00 AM 37.9°F3.3°C 31.0°F-0.6°C 76% 2.0 mph N3.2 kmh N 3.4 mph5.5 kmh 29.85 in1010.8 mb 0.00 in0.0 mm 0.00 in/hr0.0 mm/hr 0.00 in0.0 mm
11:15 AM 38.5°F3.6°C 31.2°F-0.4°C 75% 1.8 mph NE2.9 kmh NE 2.9 mph4.7 kmh 29.85 in1010.8 mb 0.00 in0.0 mm 0.00 in/hr0.0 mm/hr 0.00 in0.0 mm
11:30 AM 39.0°F3.9°C 31.8°F-0.1°C 75% 4.1 mph NE6.6 kmh NE 8.7 mph14.0 kmh 29.85 in1010.8 mb 0.00 in0.0 mm 0.00 in/hr0.0 mm/hr 0.00 in0.0 mm
11:45 AM 39.9°F4.4°C 32.3°F0.2°C 74% 2.4 mph ENE3.9 kmh ENE 5.1 mph8.2 kmh 29.85 in1010.8 mb 0.00 in0.0 mm 0.00 in/hr0.0 mm/hr 0.00 in0.0 mm
12:00 PM 40.6°F4.8°C 32.7°F0.4°C 73% 2.7 mph SE4.3 kmh SE 3.6 mph5.8 kmh 29.85 in1010.8 mb 0.00 in0.0 mm 0.00 in/hr0.0 mm/hr 0.00 in0.0 mm
12:15 PM 41.7°F5.4°C 33.4°F0.8°C 72% 3.6 mph SSW5.8 kmh SSW 4.9 mph7.9 kmh 29.84 in1010.5 mb 0.00 in0.0 mm 0.00 in/hr0.0 mm/hr 0.00 in0.0 mm
12:30 PM 42.6°F5.9°C 34.2°F1.2°C 72% 2.7 mph WSW4.3 kmh WSW 2.7 mph4.3 kmh 29.84 in1010.5 mb 0.00 in0.0 mm 0.00 in/hr0.0 mm/hr 0.00 in0.0 mm
12:45 PM 43.0°F6.1°C 33.5°F0.8°C 69% 1.8 mph NNE2.9 kmh NNE 4.3 mph6.9 kmh 29.83 in1010.2 mb 0.00 in0.0 mm 0.00 in/hr0.0 mm/hr 0.00 in0.0 mm
01:00 PM 43.5°F6.4°C 33.7°F0.9°C 68% 2.4 mph SSE3.9 kmh SSE 4.0 mph6.4 kmh 29.82 in1009.8 mb 0.00 in0.0 mm 0.00 in/hr0.0 mm/hr 0.00 in0.0 mm
01:15 PM 44.2°F6.8°C 34.0°F1.1°C 67% 3.0 mph NW4.8 kmh NW 5.1 mph8.2 kmh 29.82 in1009.8 mb 0.00 in0.0 mm 0.00 in/hr0.0 mm/hr 0.00 in0.0 mm
01:30 PM 44.2°F6.8°C 34.0°F1.1°C 67% 1.0 mph SSW1.6 kmh SSW 1.6 mph2.6 kmh 29.81 in1009.5 mb 0.00 in0.0 mm 0.00 in/hr0.0 mm/hr 0.00 in0.0 mm
01:45 PM 45.0°F7.2°C 34.3°F1.3°C 66% 2.6 mph W4.2 kmh W 5.4 mph8.7 kmh 29.82 in1009.8 mb 0.00 in0.0 mm 0.00 in/hr0.0 mm/hr 0.00 in0.0 mm
02:00 PM 45.7°F7.6°C 34.6°F1.4°C 65% 2.3 mph WSW3.7 kmh WSW 2.9 mph4.7 kmh 29.82 in1009.8 mb 0.00 in0.0 mm 0.00 in/hr0.0 mm/hr 0.00 in0.0 mm
02:15 PM 46.0°F7.8°C 34.9°F1.6°C 65% 3.3 mph N5.3 kmh N 7.6 mph12.2 kmh 29.81 in1009.5 mb 0.00 in0.0 mm 0.00 in/hr0.0 mm/hr 0.00 in0.0 mm
02:30 PM 46.8°F8.2°C 35.2°F1.8°C 64% 0.9 mph S1.4 kmh S 2.7 mph4.3 kmh 29.83 in1010.2 mb 0.00 in0.0 mm 0.00 in/hr0.0 mm/hr 0.00 in0.0 mm
02:45 PM 47.8°F8.8°C 35.8°F2.1°C 63% 1.6 mph SE2.6 kmh SE 2.7 mph4.3 kmh 29.82 in1009.8 mb 0.00 in0.0 mm 0.00 in/hr0.0 mm/hr 0.00 in0.0 mm
03:00 PM 48.7°F9.3°C 36.3°F2.4°C 62% 1.3 mph NE2.1 kmh NE 2.7 mph4.3 kmh 29.82 in1009.8 mb 0.00 in0.0 mm 0.00 in/hr0.0 mm/hr 0.00 in0.0 mm
03:15 PM 48.9°F9.4°C 36.1°F2.3°C 61% 1.7 mph SE2.7 kmh SE 2.7 mph4.3 kmh 29.83 in1010.2 mb 0.00 in0.0 mm 0.00 in/hr0.0 mm/hr 0.00 in0.0 mm
03:30 PM 48.7°F9.3°C 35.9°F2.2°C 61% Calm Calm -- 29.83 in1010.2 mb 0.00 in0.0 mm 0.00 in/hr0.0 mm/hr 0.00 in0.0 mm
03:45 PM 48.9°F9.4°C 36.1°F2.3°C 61% 0.4 mph N0.6 kmh N 2.5 mph4.0 kmh 29.82 in1009.8 mb 0.00 in0.0 mm 0.00 in/hr0.0 mm/hr 0.00 in0.0 mm
04:00 PM 49.3°F9.6°C 36.4°F2.4°C 61% Calm Calm -- 29.82 in1009.8 mb 0.00 in0.0 mm 0.00 in/hr0.0 mm/hr 0.00 in0.0 mm
04:15 PM 49.1°F9.5°C 35.8°F2.1°C 60% Calm Calm -- 29.82 in1009.8 mb 0.00 in0.0 mm 0.00 in/hr0.0 mm/hr 0.00 in0.0 mm
04:30 PM 48.7°F9.3°C 35.5°F1.9°C 60% 0.7 mph S1.1 kmh S 2.7 mph4.3 kmh 29.82 in1009.8 mb 0.00 in0.0 mm 0.00 in/hr0.0 mm/hr 0.00 in0.0 mm
04:45 PM 47.7°F8.7°C 34.9°F1.6°C 61% 2.7 mph S4.3 kmh S 4.0 mph6.4 kmh 29.82 in1009.8 mb 0.00 in0.0 mm 0.00 in/hr0.0 mm/hr 0.00 in0.0 mm
05:00 PM 46.6°F8.1°C 34.2°F1.2°C 62% 3.2 mph S5.1 kmh S 3.6 mph5.8 kmh 29.82 in1009.8 mb 0.00 in0.0 mm 0.00 in/hr0.0 mm/hr 0.00 in0.0 mm
05:15 PM 45.7°F7.6°C 33.8°F1.0°C 63% 2.1 mph S3.4 kmh S 3.6 mph5.8 kmh 29.82 in1009.8 mb 0.00 in0.0 mm 0.00 in/hr0.0 mm/hr 0.00 in0.0 mm
05:30 PM 44.4°F6.9°C 33.0°F0.6°C 64% 2.4 mph S3.9 kmh S 5.6 mph9.0 kmh 29.82 in1009.8 mb 0.00 in0.0 mm 0.00 in/hr0.0 mm/hr 0.00 in0.0 mm
05:45 PM 42.6°F5.9°C 32.0°F0.0°C 66% 2.0 mph SW3.2 kmh SW 3.4 mph5.5 kmh 29.82 in1009.8 mb 0.00 in0.0 mm 0.00 in/hr0.0 mm/hr 0.00 in0.0 mm
06:00 PM 41.5°F5.3°C 31.8°F-0.1°C 68% 1.8 mph WNW2.9 kmh WNW 3.8 mph6.1 kmh 29.82 in1009.8 mb 0.00 in0.0 mm 0.00 in/hr0.0 mm/hr 0.00 in0.0 mm
06:15 PM 40.8°F4.9°C 31.4°F-0.3°C 69% 2.5 mph SE4.0 kmh SE 5.1 mph8.2 kmh 29.83 in1010.2 mb 0.00 in0.0 mm 0.00 in/hr0.0 mm/hr 0.00 in0.0 mm
06:30 PM 40.3°F4.6°C 31.3°F-0.4°C 70% 0.6 mph W1.0 kmh W 1.8 mph2.9 kmh 29.84 in1010.5 mb 0.00 in0.0 mm 0.00 in/hr0.0 mm/hr 0.00 in0.0 mm
06:45 PM 39.7°F4.3°C 31.1°F-0.5°C 71% 0.8 mph E1.3 kmh E 3.8 mph6.1 kmh 29.85 in1010.8 mb 0.00 in0.0 mm 0.00 in/hr0.0 mm/hr 0.00 in0.0 mm
07:00 PM 39.4°F4.1°C 31.1°F-0.5°C 72% 0.7 mph NNE1.1 kmh NNE 1.6 mph2.6 kmh 29.86 in1011.2 mb 0.00 in0.0 mm 0.00 in/hr0.0 mm/hr 0.00 in0.0 mm
07:15 PM 38.8°F3.8°C 30.9°F-0.6°C 73% 2.9 mph NNW4.7 kmh NNW 3.4 mph5.5 kmh 29.86 in1011.2 mb 0.00 in0.0 mm 0.00 in/hr0.0 mm/hr 0.00 in0.0 mm
07:30 PM 38.1°F3.4°C 30.6°F-0.8°C 74% 3.3 mph SW5.3 kmh SW 4.3 mph6.9 kmh 29.86 in1011.2 mb 0.00 in0.0 mm 0.00 in/hr0.0 mm/hr 0.00 in0.0 mm
07:45 PM 37.8°F3.2°C 30.5°F-0.8°C 75% 2.9 mph SSW4.7 kmh SSW 4.3 mph6.9 kmh 29.86 in1011.2 mb 0.00 in0.0 mm 0.00 in/hr0.0 mm/hr 0.00 in0.0 mm
08:00 PM 37.2°F2.9°C 30.3°F-0.9°C 76% 3.2 mph S5.1 kmh S 4.5 mph7.2 kmh 29.86 in1011.2 mb 0.00 in0.0 mm 0.00 in/hr0.0 mm/hr 0.00 in0.0 mm
08:15 PM 37.0°F2.8°C 30.2°F-1.0°C 76% 1.7 mph W2.7 kmh W 7.4 mph11.9 kmh 29.86 in1011.2 mb 0.00 in0.0 mm 0.00 in/hr0.0 mm/hr 0.00 in0.0 mm
08:30 PM 37.0°F2.8°C 30.5°F-0.8°C 77% 2.7 mph WSW4.3 kmh WSW 4.3 mph6.9 kmh 29.86 in1011.2 mb 0.00 in0.0 mm 0.00 in/hr0.0 mm/hr 0.00 in0.0 mm
08:45 PM 36.5°F2.5°C 30.3°F-0.9°C 78% 2.5 mph NW4.0 kmh NW 5.6 mph9.0 kmh 29.87 in1011.5 mb 0.00 in0.0 mm 0.00 in/hr0.0 mm/hr 0.00 in0.0 mm
09:00 PM 36.3°F2.4°C 30.1°F-1.1°C 78% 2.8 mph W4.5 kmh W 5.1 mph8.2 kmh 29.87 in1011.5 mb 0.00 in0.0 mm 0.00 in/hr0.0 mm/hr 0.00 in0.0 mm
09:15 PM 36.1°F2.3°C 30.3°F-0.9°C 79% 7.9 mph NE12.7 kmh NE 10.7 mph17.2 kmh 29.88 in1011.9 mb 0.00 in0.0 mm 0.00 in/hr0.0 mm/hr 0.00 in0.0 mm
09:30 PM 35.8°F2.1°C 29.9°F-1.2°C 79% 6.0 mph S9.7 kmh S 8.5 mph13.7 kmh 29.89 in1012.2 mb 0.00 in0.0 mm 0.00 in/hr0.0 mm/hr 0.00 in0.0 mm
09:45 PM 35.8°F2.1°C 30.2°F-1.0°C 80% 3.8 mph S6.1 kmh S 8.5 mph13.7 kmh 29.88 in1011.9 mb 0.00 in0.0 mm 0.00 in/hr0.0 mm/hr 0.00 in0.0 mm
10:00 PM 35.4°F1.9°C 29.9°F-1.2°C 80% 2.8 mph S4.5 kmh S 4.7 mph7.6 kmh 29.89 in1012.2 mb 0.00 in0.0 mm 0.00 in/hr0.0 mm/hr 0.00 in0.0 mm
10:15 PM 35.4°F1.9°C 29.9°F-1.2°C 80% 5.2 mph S8.4 kmh S 7.2 mph11.6 kmh 29.89 in1012.2 mb 0.00 in0.0 mm 0.00 in/hr0.0 mm/hr 0.00 in0.0 mm
10:30 PM 35.4°F1.9°C 30.2°F-1.0°C 81% 3.2 mph SE5.1 kmh SE 7.2 mph11.6 kmh 29.89 in1012.2 mb 0.00 in0.0 mm 0.00 in/hr0.0 mm/hr 0.00 in0.0 mm
10:45 PM 35.4°F1.9°C 30.2°F-1.0°C 81% 4.2 mph S6.8 kmh S 7.4 mph11.9 kmh 29.89 in1012.2 mb 0.00 in0.0 mm 0.00 in/hr0.0 mm/hr 0.00 in0.0 mm
11:00 PM 35.2°F1.8°C 30.0°F-1.1°C 81% 1.8 mph SW2.9 kmh SW 2.9 mph4.7 kmh 29.89 in1012.2 mb 0.00 in0.0 mm 0.00 in/hr0.0 mm/hr 0.00 in0.0 mm
11:15 PM 35.2°F1.8°C 30.0°F-1.1°C 81% 4.6 mph NW7.4 kmh NW 5.1 mph8.2 kmh 29.89 in1012.2 mb 0.00 in0.0 mm 0.00 in/hr0.0 mm/hr 0.00 in0.0 mm
11:30 PM 35.1°F1.7°C 30.1°F-1.1°C 82% 3.5 mph SW5.6 kmh SW 7.6 mph12.2 kmh 29.89 in1012.2 mb 0.00 in0.0 mm 0.00 in/hr0.0 mm/hr 0.00 in0.0 mm
11:45 PM 34.9°F1.6°C 29.9°F-1.2°C 82% 2.5 mph WSW4.0 kmh WSW 5.6 mph9.0 kmh 29.89 in1012.2 mb 0.00 in0.0 mm 0.00 in/hr0.0 mm/hr 0.00 in0.0 mm